createdAt,value
2024-02-22T02:28:03.569Z,43.00
2024-02-22T02:30:31.671Z,41.88
2024-02-22T02:33:00.229Z,44.35
2024-02-22T02:35:28.515Z,43.28
2024-02-22T02:37:59.676Z,43.28
2024-02-22T02:40:27.924Z,42.70
2024-02-22T02:42:56.305Z,43.55
2024-02-22T02:45:24.362Z,41.55
2024-02-22T02:47:52.937Z,44.80
2024-02-22T02:50:21.206Z,44.30
2024-02-22T02:52:49.735Z,43.50
2024-02-22T02:55:18.088Z,43.70
2024-02-22T02:57:47.056Z,43.53
2024-02-22T03:00:15.952Z,42.75
2024-02-22T03:02:44.509Z,42.80
2024-02-22T03:05:13.102Z,43.35
2024-02-22T03:07:42.345Z,43.90
2024-02-22T03:10:10.764Z,45.05
2024-02-22T03:12:39.191Z,44.72
2024-02-22T03:15:09.072Z,44.70
2024-02-22T03:17:37.776Z,43.78
2024-02-22T03:20:11.912Z,44.22
2024-02-22T03:22:41.513Z,42.50
2024-02-22T03:25:10.489Z,41.95
2024-02-22T03:27:40.295Z,44.55
2024-02-22T03:30:11.182Z,46.00
2024-02-22T03:32:39.709Z,43.25
2024-02-22T03:35:10.356Z,45.22
2024-02-22T03:37:39.934Z,43.83
2024-02-22T03:40:10.106Z,43.95
2024-02-22T03:42:40.247Z,43.95
2024-02-22T03:45:08.826Z,42.60
2024-02-22T03:47:38.162Z,44.38
2024-02-22T03:50:06.756Z,44.60
2024-02-22T03:52:35.422Z,43.40
2024-02-22T03:55:03.923Z,43.22
2024-02-22T03:57:32.358Z,44.42
2024-02-22T04:00:00.590Z,46.17
2024-02-22T04:02:29.055Z,43.58
2024-02-22T04:04:57.201Z,48.10
2024-02-22T04:07:25.800Z,44.30
2024-02-22T04:09:54.376Z,45.08
2024-02-22T04:12:22.904Z,44.22
2024-02-22T04:14:51.658Z,44.13
2024-02-22T04:17:20.087Z,45.53
2024-02-22T04:19:48.183Z,42.60
2024-02-22T04:22:16.600Z,46.17
2024-02-22T04:24:44.607Z,45.15
2024-02-22T04:27:13.176Z,43.42
2024-02-22T04:29:41.252Z,44.40
2024-02-22T04:32:10.203Z,44.47
2024-02-22T04:34:38.380Z,44.08
2024-02-22T04:37:07.641Z,43.03
2024-02-22T04:39:35.648Z,43.78
2024-02-22T04:42:04.200Z,45.72
2024-02-22T04:44:32.214Z,45.13
2024-02-22T04:47:00.614Z,42.83
2024-02-22T04:49:28.810Z,46.35
2024-02-22T04:51:57.547Z,42.78
2024-02-22T04:54:26.369Z,43.47
2024-02-22T04:56:54.732Z,45.05
2024-02-22T04:59:22.888Z,45.38
2024-02-22T05:01:51.553Z,44.58
2024-02-22T05:04:19.688Z,44.13
2024-02-22T05:06:48.483Z,44.40
2024-02-22T05:09:16.658Z,44.72
2024-02-22T05:11:48.901Z,44.13
2024-02-22T05:14:17.261Z,43.00
2024-02-22T05:16:45.848Z,44.22
2024-02-22T05:19:14.277Z,42.83
2024-02-22T05:21:42.882Z,43.72
2024-02-22T05:24:13.793Z,42.60
2024-02-22T05:26:42.298Z,41.88
2024-02-22T05:29:10.648Z,45.20
2024-02-22T05:31:39.271Z,41.80
2024-02-22T05:34:07.506Z,45.30
2024-02-22T05:36:36.160Z,41.95
2024-02-22T05:39:05.836Z,42.67
2024-02-22T05:41:36.350Z,42.92
2024-02-22T05:44:05.421Z,43.05
2024-02-22T05:46:33.913Z,43.70
2024-02-22T05:49:02.187Z,43.72
2024-02-22T05:51:30.632Z,42.17
2024-02-22T05:53:58.832Z,44.55
2024-02-22T05:56:27.342Z,45.33
2024-02-22T05:58:55.470Z,45.15
2024-02-22T06:01:24.552Z,43.25
2024-02-22T06:03:52.801Z,43.85
2024-02-22T06:06:21.319Z,46.03
2024-02-22T06:08:49.442Z,41.22
2024-02-22T06:11:19.086Z,46.70
2024-02-22T06:13:47.678Z,43.50
2024-02-22T06:16:16.561Z,41.78
2024-02-22T06:18:45.163Z,43.40
2024-02-22T06:21:13.673Z,44.03
2024-02-22T06:23:41.704Z,40.92
2024-02-22T06:26:10.137Z,39.83
2024-02-22T06:28:39.458Z,41.53
2024-02-22T06:31:07.944Z,40.70
2024-02-22T06:33:36.294Z,39.97
2024-02-22T06:36:05.232Z,42.63
2024-02-22T06:38:33.536Z,40.42
2024-02-22T06:41:02.282Z,43.55
2024-02-22T06:43:30.450Z,41.30
2024-02-22T06:45:59.189Z,40.65
2024-02-22T06:48:27.518Z,41.47
2024-02-22T06:50:56.314Z,43.08
2024-02-22T06:53:24.593Z,41.17
2024-02-22T06:55:53.153Z,41.45
2024-02-22T06:58:21.359Z,41.92
2024-02-22T07:00:50.127Z,40.22
2024-02-22T07:03:18.339Z,42.70
2024-02-22T07:05:46.932Z,39.60
2024-02-22T07:08:15.164Z,41.65
2024-02-22T07:10:44.566Z,41.22
2024-02-22T07:13:13.612Z,43.13
2024-02-22T07:15:42.161Z,42.15
2024-02-22T07:18:10.407Z,42.60
2024-02-22T07:20:40.181Z,39.90
2024-02-22T07:23:08.316Z,40.70
2024-02-22T07:25:36.811Z,39.85
2024-02-22T07:28:05.262Z,38.00
2024-02-22T07:30:35.430Z,40.13
2024-02-22T07:33:04.082Z,41.65
2024-02-22T07:35:33.242Z,41.72
2024-02-22T07:38:01.643Z,40.58
2024-02-22T07:40:30.224Z,40.97
2024-02-22T07:42:58.411Z,41.47
2024-02-22T07:45:29.835Z,41.80
2024-02-22T07:47:58.416Z,43.55
2024-02-22T07:50:28.594Z,42.22
2024-02-22T07:52:57.215Z,40.80
2024-02-22T07:55:25.385Z,41.08
2024-02-22T07:57:54.512Z,41.72
2024-02-22T08:00:22.730Z,43.28
2024-02-22T08:02:51.275Z,40.72
2024-02-22T08:05:19.605Z,43.20
2024-02-22T08:07:49.457Z,42.30
2024-02-22T08:10:19.020Z,44.50
2024-02-22T08:12:47.554Z,41.17
2024-02-22T08:15:17.332Z,42.42
2024-02-22T08:17:46.182Z,43.38
2024-02-22T08:20:16.557Z,41.50
2024-02-22T08:22:45.781Z,43.25
2024-02-22T08:25:13.934Z,42.35
2024-02-22T08:27:50.314Z,44.28
2024-02-22T08:30:28.239Z,41.47
2024-02-22T08:32:56.813Z,42.58
2024-02-22T08:35:25.240Z,44.42
2024-02-22T08:37:54.357Z,39.95
2024-02-22T08:40:31.424Z,44.17
2024-02-22T08:43:07.562Z,41.65
2024-02-22T08:45:36.662Z,43.00
2024-02-22T08:48:06.390Z,43.47
2024-02-22T08:50:35.040Z,44.65
2024-02-22T08:53:04.131Z,41.40
2024-02-22T08:55:32.650Z,43.25
2024-02-22T08:58:02.227Z,41.78
2024-02-22T09:00:30.857Z,40.15
2024-02-22T09:02:59.644Z,41.83
2024-02-22T09:05:28.744Z,41.03
2024-02-22T09:07:57.960Z,39.47
2024-02-22T09:10:26.386Z,42.22
2024-02-22T09:12:55.087Z,41.65
2024-02-22T09:15:24.413Z,40.92
2024-02-22T09:17:53.429Z,41.70
2024-02-22T09:20:22.352Z,41.30
2024-02-22T09:22:51.154Z,40.35
2024-02-22T09:25:19.533Z,42.92
2024-02-22T09:27:48.826Z,41.33
2024-02-22T09:30:17.176Z,41.45
2024-02-22T09:32:46.094Z,41.03
2024-02-22T09:35:14.683Z,40.92
2024-02-22T09:37:43.999Z,41.30
2024-02-22T09:40:14.030Z,43.50
2024-02-22T09:42:43.120Z,45.80
2024-02-22T09:45:11.574Z,42.75
2024-02-22T09:47:40.447Z,44.40
2024-02-22T09:50:12.166Z,44.05
2024-02-22T09:52:41.390Z,44.30
2024-02-22T09:55:12.756Z,47.63
2024-02-22T09:57:42.082Z,44.17
2024-02-22T10:00:11.290Z,43.67
2024-02-22T10:02:47.447Z,47.20
2024-02-22T10:05:16.911Z,43.70
2024-02-22T10:07:45.758Z,43.92
2024-02-22T10:10:25.337Z,44.03
2024-02-22T10:12:55.216Z,44.38
2024-02-22T10:15:29.406Z,45.40
2024-02-22T10:17:58.394Z,45.45
2024-02-22T10:20:34.908Z,45.38
2024-02-22T10:23:11.513Z,44.05
2024-02-22T10:25:41.384Z,45.67
2024-02-22T10:28:15.744Z,45.10
2024-02-22T10:30:45.938Z,46.17
2024-02-22T10:33:14.847Z,47.60
2024-02-22T10:35:46.240Z,47.65
2024-02-22T10:38:16.076Z,49.63
2024-02-22T10:40:45.922Z,45.72
2024-02-22T10:43:16.388Z,48.70
2024-02-22T10:45:45.232Z,45.95
2024-02-22T10:48:15.232Z,46.45
2024-02-22T10:50:45.254Z,45.90
2024-02-22T10:53:16.480Z,47.50
2024-02-22T10:55:53.737Z,47.83
2024-02-22T10:58:28.854Z,46.38
2024-02-22T11:01:00.735Z,48.25
2024-02-22T11:03:31.969Z,47.28
2024-02-22T11:06:01.428Z,48.50
2024-02-22T11:08:30.087Z,49.72
2024-02-22T11:11:07.310Z,48.05
2024-02-22T11:13:37.066Z,47.28
2024-02-22T11:16:18.415Z,48.00
2024-02-22T11:18:48.097Z,47.88
2024-02-22T11:21:16.586Z,47.15
2024-02-22T11:23:45.474Z,48.42
2024-02-22T11:26:13.928Z,49.83
2024-02-22T11:28:42.576Z,48.85
2024-02-22T11:31:15.507Z,50.30
2024-02-22T11:33:45.279Z,50.88
2024-02-22T11:36:18.328Z,47.70
2024-02-22T11:38:47.499Z,47.50
2024-02-22T11:41:17.658Z,47.92
2024-02-22T11:43:46.342Z,44.70
2024-02-22T11:46:14.668Z,42.25
2024-02-22T11:48:45.515Z,40.35
2024-02-22T11:51:15.218Z,41.65
2024-02-22T11:53:54.573Z,39.40
2024-02-22T11:56:22.931Z,40.88
2024-02-22T11:58:51.934Z,40.90
2024-02-22T12:01:20.903Z,38.13
2024-02-22T12:03:52.991Z,37.22
2024-02-22T12:06:22.672Z,36.13
2024-02-22T12:08:52.380Z,35.97
2024-02-22T12:11:21.205Z,36.33
2024-02-22T12:14:00.903Z,33.53
2024-02-22T12:16:29.384Z,35.97
2024-02-22T12:18:58.463Z,32.97
2024-02-22T12:21:31.044Z,31.25
2024-02-22T12:24:06.076Z,31.70
2024-02-22T12:26:34.526Z,31.50
2024-02-22T12:29:03.525Z,28.13
2024-02-22T12:31:31.838Z,28.35
2024-02-22T12:34:00.834Z,27.25
2024-02-22T12:36:29.088Z,28.75
2024-02-22T12:38:59.525Z,29.98
2024-02-22T12:41:29.394Z,29.63
2024-02-22T12:43:59.186Z,29.30
2024-02-22T12:46:29.364Z,30.05
2024-02-22T12:48:58.195Z,31.27
2024-02-22T12:51:26.549Z,29.92
2024-02-22T12:53:55.463Z,28.63
2024-02-22T12:56:27.279Z,29.77
2024-02-22T12:58:57.324Z,29.80
2024-02-22T13:01:25.656Z,27.98
2024-02-22T13:03:54.576Z,29.98
2024-02-22T13:06:22.921Z,28.30
2024-02-22T13:08:51.644Z,29.98
2024-02-22T13:11:20.205Z,27.80
2024-02-22T13:13:48.858Z,28.08
2024-02-22T13:16:24.422Z,25.92
2024-02-22T13:18:53.546Z,26.23
2024-02-22T13:21:21.916Z,21.73
2024-02-22T13:23:50.661Z,22.95
2024-02-22T13:26:19.159Z,20.35
2024-02-22T13:28:48.726Z,20.30
2024-02-22T13:31:17.038Z,22.13
2024-02-22T13:33:48.437Z,20.65
2024-02-22T13:36:16.862Z,22.60
2024-02-22T13:38:45.804Z,21.13
2024-02-22T13:41:14.442Z,20.77
2024-02-22T13:43:43.545Z,22.10
2024-02-22T13:46:11.802Z,19.95
2024-02-22T13:48:42.002Z,17.27
2024-02-22T13:51:10.387Z,18.92
2024-02-22T13:53:39.027Z,17.63
2024-02-22T13:56:08.432Z,20.23
2024-02-22T13:58:41.088Z,20.45
2024-02-22T14:01:09.726Z,21.58
2024-02-22T14:03:38.500Z,20.92
2024-02-22T14:06:07.707Z,22.65
2024-02-22T14:08:36.416Z,21.58
2024-02-22T14:11:08.031Z,22.83
2024-02-22T14:13:37.823Z,21.63
2024-02-22T14:16:07.028Z,25.88
2024-02-22T14:18:37.201Z,24.35
2024-02-22T14:21:05.808Z,25.35
2024-02-22T14:23:34.557Z,24.60
2024-02-22T14:26:03.764Z,25.38
2024-02-22T14:28:32.526Z,24.35
2024-02-22T14:31:01.739Z,28.90
2024-02-22T14:33:31.548Z,25.63
2024-02-22T14:35:59.987Z,23.95
2024-02-22T14:38:29.674Z,25.70
2024-02-22T14:40:57.870Z,24.45
2024-02-22T14:43:26.513Z,23.80
2024-02-22T14:45:54.655Z,23.80
2024-02-22T14:48:24.131Z,22.27
2024-02-22T14:50:53.073Z,22.75
2024-02-22T14:53:21.866Z,23.42
2024-02-22T14:55:50.332Z,23.38
2024-02-22T14:58:23.219Z,23.63
2024-02-22T15:00:51.613Z,25.00
2024-02-22T15:03:20.126Z,25.77
2024-02-22T15:05:48.475Z,25.80
2024-02-22T15:08:17.464Z,25.70
2024-02-22T15:10:45.839Z,26.63
2024-02-22T15:13:15.529Z,25.10
2024-02-22T15:15:43.954Z,24.55
2024-02-22T15:18:12.539Z,25.08
2024-02-22T15:20:41.068Z,23.40
2024-02-22T15:23:09.867Z,24.77
2024-02-22T15:25:38.061Z,24.75
2024-02-22T15:28:06.902Z,25.02
2024-02-22T15:30:35.125Z,25.92
2024-02-22T15:33:03.833Z,23.65
2024-02-22T15:35:32.157Z,27.42
2024-02-22T15:38:02.149Z,25.33
2024-02-22T15:40:30.517Z,27.50
2024-02-22T15:42:59.600Z,28.70
2024-02-22T15:45:29.157Z,28.73
2024-02-22T15:47:57.751Z,28.13
2024-02-22T15:50:26.033Z,29.73
2024-02-22T15:52:54.614Z,28.90
2024-02-22T15:55:22.927Z,31.80
2024-02-22T15:57:51.686Z,30.17
2024-02-22T16:00:20.452Z,33.40
2024-02-22T16:02:49.027Z,31.67
2024-02-22T16:05:17.326Z,31.90
2024-02-22T16:07:45.964Z,32.10
2024-02-22T16:10:14.319Z,34.05
2024-02-22T16:12:43.040Z,33.25
2024-02-22T16:15:12.563Z,34.13
2024-02-22T16:17:44.295Z,35.33
2024-02-22T16:20:13.536Z,33.42
2024-02-22T16:22:42.162Z,31.90
2024-02-22T16:25:11.393Z,31.13
2024-02-22T16:27:43.387Z,28.80
2024-02-22T16:30:11.956Z,25.02
2024-02-22T16:32:42.357Z,25.08
2024-02-22T16:35:14.465Z,25.30
2024-02-22T16:37:46.135Z,22.17
2024-02-22T16:40:14.443Z,21.27
2024-02-22T16:42:43.973Z,17.50
2024-02-22T16:45:12.158Z,12.55
2024-02-22T16:47:41.013Z,13.00
2024-02-22T16:50:09.332Z,10.18
2024-02-22T16:52:38.430Z,9.10
2024-02-22T16:55:06.959Z,8.30
2024-02-22T16:57:38.610Z,7.80
2024-02-22T17:00:10.748Z,8.43
2024-02-22T17:02:42.042Z,8.65
2024-02-22T17:05:11.093Z,7.20
2024-02-22T17:07:40.277Z,8.65
2024-02-22T17:10:13.434Z,7.95
2024-02-22T17:12:44.731Z,8.45
2024-02-22T17:15:13.125Z,8.10
2024-02-22T17:17:46.804Z,7.38
2024-02-22T17:20:19.281Z,8.10
2024-02-22T17:22:48.256Z,9.27
2024-02-22T17:25:16.838Z,9.65
2024-02-22T17:27:45.754Z,12.65
2024-02-22T17:30:14.253Z,9.88
2024-02-22T17:32:43.779Z,10.27
2024-02-22T17:35:13.368Z,10.90
2024-02-22T17:37:41.997Z,8.43
2024-02-22T17:40:10.827Z,8.88
2024-02-22T17:42:39.528Z,7.93
2024-02-22T17:45:10.286Z,8.18
2024-02-22T17:47:39.239Z,7.40
2024-02-22T17:50:09.130Z,8.93
2024-02-22T17:52:37.763Z,7.53
2024-02-22T17:55:11.496Z,8.00
2024-02-22T17:57:42.048Z,8.07
2024-02-22T18:00:12.715Z,7.75
2024-02-22T18:02:41.204Z,7.85
2024-02-22T18:05:10.237Z,6.13
2024-02-22T18:07:40.535Z,7.50
2024-02-22T18:10:10.003Z,7.03
2024-02-22T18:12:38.708Z,10.00
2024-02-22T18:15:07.851Z,8.27
2024-02-22T18:17:36.881Z,7.20
2024-02-22T18:20:07.167Z,7.72
2024-02-22T18:22:36.025Z,8.27
2024-02-22T18:25:04.728Z,8.43
2024-02-22T18:27:35.301Z,9.27
2024-02-22T18:30:05.892Z,8.52
2024-02-22T18:32:34.506Z,7.88
2024-02-22T18:35:03.192Z,10.35
2024-02-22T18:37:32.066Z,7.07
2024-02-22T18:40:00.374Z,7.60
2024-02-22T18:42:29.113Z,6.93
2024-02-22T18:44:59.707Z,7.20
2024-02-22T18:47:29.072Z,7.38
2024-02-22T18:49:57.465Z,8.18
2024-02-22T18:52:26.856Z,9.18
2024-02-22T18:54:55.740Z,7.30
2024-02-22T18:57:24.738Z,5.65
2024-02-22T18:59:53.162Z,5.78
2024-02-22T19:02:21.888Z,5.28
2024-02-22T19:04:50.334Z,7.53
2024-02-22T19:07:21.948Z,5.75
2024-02-22T19:09:50.708Z,5.15
2024-02-22T19:12:19.382Z,6.22
2024-02-22T19:14:52.280Z,7.20
2024-02-22T19:17:21.054Z,4.78
2024-02-22T19:19:50.627Z,3.65
2024-02-22T19:22:19.521Z,4.90
2024-02-22T19:24:47.682Z,4.38
2024-02-22T19:27:16.232Z,5.00
2024-02-22T19:29:44.569Z,5.95
2024-02-22T19:32:14.078Z,4.80
2024-02-22T19:34:42.316Z,5.88
2024-02-22T19:37:10.992Z,5.03
2024-02-22T19:39:40.313Z,4.00
2024-02-22T19:42:09.173Z,4.18
2024-02-22T19:44:38.424Z,4.32
2024-02-22T19:47:08.208Z,4.10
2024-02-22T19:49:36.525Z,4.40
2024-02-22T19:52:05.540Z,5.07
2024-02-22T19:54:33.823Z,3.97
2024-02-22T19:57:02.540Z,4.35
2024-02-22T19:59:31.000Z,4.47
2024-02-22T20:01:59.648Z,4.32
2024-02-22T20:04:28.074Z,4.82
2024-02-22T20:06:56.728Z,4.47
2024-02-22T20:09:24.948Z,4.63
2024-02-22T20:11:53.653Z,5.45
2024-02-22T20:14:22.075Z,5.35
2024-02-22T20:16:53.666Z,5.35
2024-02-22T20:19:22.531Z,4.82
2024-02-22T20:21:52.009Z,5.15
2024-02-22T20:24:20.443Z,7.05
2024-02-22T20:26:49.007Z,6.30
2024-02-22T20:29:17.407Z,6.35
2024-02-22T20:31:48.609Z,5.53
2024-02-22T20:34:17.412Z,5.75
2024-02-22T20:36:46.292Z,5.80
2024-02-22T20:39:14.928Z,7.53
2024-02-22T20:41:43.647Z,7.78
2024-02-22T20:44:11.949Z,6.68
2024-02-22T20:46:40.720Z,7.00
2024-02-22T20:49:09.728Z,6.68
2024-02-22T20:51:39.868Z,5.85
2024-02-22T20:54:09.607Z,6.47
2024-02-22T20:56:38.367Z,6.80
2024-02-22T20:59:07.801Z,6.05
2024-02-22T21:01:36.770Z,6.05
2024-02-22T21:04:07.446Z,6.60
2024-02-22T21:06:36.084Z,6.00
2024-02-22T21:09:05.265Z,7.53
2024-02-22T21:11:34.069Z,6.65
2024-02-22T21:14:02.464Z,6.15
2024-02-22T21:16:31.894Z,5.85
2024-02-22T21:19:00.493Z,5.65
2024-02-22T21:21:29.639Z,5.28
2024-02-22T21:23:58.168Z,5.50
2024-02-22T21:26:28.469Z,4.95
2024-02-22T21:28:57.517Z,4.20
2024-02-22T21:31:26.373Z,5.18
2024-02-22T21:34:00.025Z,5.32
2024-02-22T21:36:28.642Z,4.75
2024-02-22T21:38:59.717Z,4.65
2024-02-22T21:41:28.856Z,4.95
2024-02-22T21:43:57.929Z,4.50
2024-02-22T21:46:26.682Z,5.65
2024-02-22T21:48:55.728Z,5.35
2024-02-22T21:51:25.679Z,4.55
2024-02-22T21:53:55.417Z,5.18
2024-02-22T21:56:24.181Z,4.38
2024-02-22T21:58:52.817Z,4.18
2024-02-22T22:01:21.883Z,4.13
2024-02-22T22:03:50.332Z,4.35
2024-02-22T22:06:19.074Z,4.53
2024-02-22T22:08:47.380Z,4.38
2024-02-22T22:11:15.993Z,4.28
2024-02-22T22:13:45.316Z,4.20
2024-02-22T22:16:14.197Z,4.30
2024-02-22T22:18:44.023Z,4.43
2024-02-22T22:21:21.262Z,4.25
2024-02-22T22:23:57.122Z,4.35
2024-02-22T22:26:26.235Z,4.35
2024-02-22T22:28:54.589Z,4.53
2024-02-22T22:31:23.431Z,5.78
2024-02-22T22:33:51.848Z,4.13
2024-02-22T22:36:20.412Z,5.07
2024-02-22T22:38:48.564Z,5.07
2024-02-22T22:41:17.877Z,5.45
2024-02-22T22:43:46.408Z,4.60
2024-02-22T22:46:15.002Z,3.92
2024-02-22T22:48:43.217Z,4.40
2024-02-22T22:51:11.718Z,3.90
2024-02-22T22:53:39.929Z,4.97
2024-02-22T22:56:08.719Z,4.38
2024-02-22T22:58:36.970Z,4.10
2024-02-22T23:01:05.641Z,3.90
2024-02-22T23:03:33.767Z,4.18
2024-02-22T23:06:02.822Z,3.75
2024-02-22T23:08:31.165Z,4.18
2024-02-22T23:11:00.019Z,3.50
2024-02-22T23:13:30.062Z,3.47
2024-02-22T23:15:58.721Z,3.03
2024-02-22T23:18:27.364Z,3.70
2024-02-22T23:20:56.531Z,3.90
2024-02-22T23:23:24.953Z,3.53
2024-02-22T23:25:53.995Z,3.38
2024-02-22T23:28:23.049Z,3.50
2024-02-22T23:30:52.071Z,4.28
2024-02-22T23:33:20.551Z,4.15
2024-02-22T23:35:50.690Z,4.50
2024-02-22T23:38:19.072Z,3.60
2024-02-22T23:41:00.383Z,4.60
2024-02-22T23:43:36.202Z,3.67
2024-02-22T23:46:04.848Z,4.03
2024-02-22T23:48:34.582Z,4.07
2024-02-22T23:51:03.734Z,3.85
2024-02-22T23:53:31.915Z,4.32
2024-02-22T23:56:00.394Z,3.75
2024-02-22T23:58:28.561Z,4.32
